Aérodrome :
LOGIN :

S'inscrire | Disclaimer

   EN    FR    IT 

 










Légende :    VFR   VFR Marginal   IFR   IFR Intensif   IFR Très Intensif
Visi : 
Plafond : 
>= 8 km
>= 3000ft
5 à 8 km
1000 à 3000 ft
1500m à 5 km
500 à 1000 ft
800 à 1500m
200 à 500 ft
< 800m
< 200 ft
Symboles :   Orages  Brouillard  Fortes neiges  Fortes précipitations  Vent > 20 kt
SIGMETs :   Divers  Orages  Givrage  Turbulence  Onde Orograph.  Cendres Volcan.







- Altitude de l'aérodrome : 124 ft
- Code IATA : RNS
- Voir les cartes d'approche


LFRN - Rennes

DERNIER METAR :
  • 170500Z AUTO 07002KT 8000 NSC 10/10 Q1020 TEMPO 0500 FG VV///

METARs EXPIRÉS :
  • 170430Z AUTO 06002KT 7000 NSC 10/10 Q1020 TEMPO 0500 FG VV///
  • 170400Z AUTO 09001KT 7000 0350 R28/P2000 R10/0400D BCFG NSC 10/10 Q1020 TEMPO 0500 FG VV///
  • 170330Z AUTO 15002KT 9000 0500 R28/P2000 R10/0500D BCFG NSC 10/10 Q1020 TEMPO 0500 FG VV///
  • 170300Z AUTO 00000KT 0450 0400 R28/1300D R10/0450N FG NSC 10/10 Q1020 TEMPO VV///
  • 170230Z AUTO 22002KT 0800 0300 R28/P2000 R10/0375N FG NSC 11/11 Q1020 TEMPO 0500 FG VV///

TAF TAF LFRN
Valide du 17 à 06h jusqu'au 18 à 06h UTC


170500Z 1706/1806 VRB03KT 8000 NSC
TEMPO 1706/1707 0500 BCFG
PROB30
TEMPO 1804/1806 SHRA
ATIS : +33 2 99 67 72 50
Pas de NOTAMs connus pour ce terrain.



MET'MAP, la Météo Aéronautique d'un coup d'oeil ! - Copyright ORBIFLY Décembre 2007 - Disclaimer

ORBIFLY MET'MAP TEAM :

Programmation & Développement : Alexandra Zaïnal
Conception & Développement : Baudouin d'Aumeries
Co-Programmation & Développement : Marc-Olivier Méhu
Soutien technique & logistique : Manuel Goepfert

Contact : metmap@orbifly.com




SOURCES & CREDITS :

   NOAA